LNG Borno — ZCDW4 — position and weather

sailwx.info

Track history (hours):
 
Tides and Currents Weather Stations Pressure Air Temp Water Temp Dewpoint Dewpoint Depression Visibility Wind Speed Wind Dir Waves Ship Positions

LNG Borno

Last reported at 2017-Sep-02 10:29 UTC. Time now 2017-Sep-25 06:30 UTC.
Position N 18°04' W 019°03'.
Warning: this ship's position is 22 days out of date.

Length 285 m; draft 9.2 m.

Type: Ship (hazmat cat A). MMSI: 310543000.

Date/timePositionNaut miles runAvg speedWind from/ knotsBaromVisibWave heightAir tempDewpointWater temp
2017-Sep-02 10:29N 18°04' W 019°03'1119.9
2017-Sep-02 09:55N 18°16' W 019°02'1019.7
2017-Sep-02 09:26N 18°25' W 019°01'919.6
2017-Sep-02 09:00N 18°34' W 019°01'1319.4
2017-Sep-02 08:19N 18°47' W 019°00'818.4
2017-Sep-02 07:54N 18°55' W 018°60'1018.1
2017-Sep-02 07:22N 19°04' W 018°59'1119.4
2017-Sep-02 06:49N 19°15' W 018°59'819.8
2017-Sep-02 06:24N 19°23' W 018°58'820.1
2017-Sep-02 05:59N 19°32' W 018°57'1020.3
2017-Sep-02 05:30N 19°41' W 018°57'1020.4
2017-Sep-02 04:59N 19°52' W 018°56'1020.4
2017-Sep-02 04:29N 20°02' W 018°56'1020.4
2017-Sep-02 03:59N 20°12' W 018°55'1120.1
2017-Sep-02 03:27N 20°23' W 018°54'6620.0
2017-Sep-02 00:08N 21°26' W 018°34'320.3
2017-Sep-01 23:59N 21°29' W 018°32'1020.3
2017-Sep-01 23:30N 21°38' W 018°28'1020.4
2017-Sep-01 22:59N 21°48' W 018°24'1020.2
2017-Sep-01 22:29N 21°57' W 018°20'1020.5
2017-Sep-01 21:59N 22°06' W 018°15'1020.4
2017-Sep-01 21:29N 22°16' W 018°10'1020.2
2017-Sep-01 20:59N 22°25' W 018°06'920.1
2017-Sep-01 20:30N 22°33' W 018°02'1020.2
2017-Sep-01 20:00N 22°43' W 017°57'1020.2
2017-Sep-01 19:30N 22°52' W 017°53'1120.2
2017-Sep-01 18:56N 23°03' W 017°48'1120.1
2017-Sep-01 18:22N 23°13' W 017°44'26413.8
2017-Aug-31 23:12N 27°03' W 015°19'2112.8
2017-Aug-31 21:35N 27°23' W 015°15'313.2
2017-Aug-31 21:20N 27°26' W 015°15'1113.0
2017-Aug-31 20:28N 27°37' W 015°15'612.7
2017-Aug-31 20:00N 27°43' W 015°15'712.8
2017-Aug-31 19:29N 27°50' W 015°14'612.9
2017-Aug-31 19:00N 27°56' W 015°15'612.6
2017-Aug-31 18:30N 28°02' W 015°17'611.3
2017-Aug-31 18:00N 28°07' W 015°20'1 1.0
2017-Aug-31 17:30N 28°08' W 015°19'3 6.4
2017-Aug-31 17:00N 28°08' W 015°16'1 2.6
2017-Aug-31 16:30N 28°08' W 015°15'714.8
2017-Aug-31 16:00N 28°15' W 015°16'1 2.3
2017-Aug-31 15:30N 28°14' W 015°15'2 4.4
2017-Aug-31 15:00N 28°16' W 015°15'1 1.8
2017-Aug-31 14:30N 28°16' W 015°16'1 1.6
2017-Aug-31 14:00N 28°16' W 015°16'2 4.2
2017-Aug-31 13:30N 28°15' W 015°18'3 6.0
2017-Aug-31 13:00N 28°12' W 015°20'4 7.6
2017-Aug-31 12:30N 28°09' W 015°23'1 2.0
2017-Aug-31 11:59N 28°08' W 015°24'0 0.1
2017-Aug-31 11:29N 28°08' W 015°24'0 0.0
2017-Aug-31 10:59N 28°08' W 015°24'0 0.0
2017-Aug-31 10:29N 28°08' W 015°24'0 0.1
2017-Aug-31 09:59N 28°08' W 015°24'0 0.1
2017-Aug-31 09:29N 28°08' W 015°24'0 0.1
2017-Aug-31 08:59N 28°08' W 015°24'0 0.0
2017-Aug-31 08:29N 28°08' W 015°24'0 0.0
2017-Aug-31 07:56N 28°08' W 015°24'0 0.0
2017-Aug-31 07:29N 28°08' W 015°24'0 0.1
2017-Aug-31 06:53N 28°08' W 015°24'0 0.0
2017-Aug-31 06:29N 28°08' W 015°24'0 0.1
2017-Aug-31 05:59N 28°08' W 015°24'0 0.0
2017-Aug-31 05:29N 28°08' W 015°24'0 0.1
2017-Aug-31 04:59N 28°08' W 015°24'0 0.0
2017-Aug-31 04:29N 28°08' W 015°24'0 0.0
2017-Aug-31 03:59N 28°08' W 015°24'0 0.0
2017-Aug-31 03:29N 28°08' W 015°24'0 0.0
2017-Aug-31 02:59N 28°08' W 015°24'0 0.0
2017-Aug-31 02:29N 28°08' W 015°24'0 0.1
2017-Aug-31 01:59N 28°08' W 015°24'0 0.0
2017-Aug-31 01:29N 28°08' W 015°24'0 0.1
2017-Aug-31 00:59N 28°08' W 015°24'0 0.1
2017-Aug-31 00:29N 28°08' W 015°24'0 0.0
2017-Aug-30 23:59N 28°08' W 015°24'0 0.0
2017-Aug-30 23:29N 28°08' W 015°24'0 0.0
2017-Aug-30 22:59N 28°08' W 015°24'0 0.1
2017-Aug-30 22:29N 28°08' W 015°24'0 0.0
2017-Aug-30 21:59N 28°08' W 015°24'0 0.1
2017-Aug-30 21:29N 28°08' W 015°24'0 0.0
2017-Aug-30 20:59N 28°08' W 015°24'0 0.0
2017-Aug-30 20:29N 28°08' W 015°24'0 0.1
2017-Aug-30 19:56N 28°08' W 015°24'0 0.0
2017-Aug-30 19:26N 28°08' W 015°24'0 0.0
2017-Aug-30 18:59N 28°08' W 015°24'0 0.0
2017-Aug-30 18:29N 28°08' W 015°24'0 0.0
2017-Aug-30 17:59N 28°08' W 015°24'0 0.0
2017-Aug-30 17:29N 28°08' W 015°24'0 0.0
2017-Aug-30 16:59N 28°08' W 015°24'0 0.0
2017-Aug-30 16:29N 28°08' W 015°24'0 0.0
2017-Aug-30 15:59N 28°08' W 015°24'0 0.0
2017-Aug-30 15:29N 28°08' W 015°24'0 0.0
2017-Aug-30 14:59N 28°08' W 015°24'0 0.1
2017-Aug-30 14:29N 28°08' W 015°24'0 0.0
2017-Aug-30 13:59N 28°08' W 015°24'0 0.0
2017-Aug-30 13:29N 28°08' W 015°24'0 0.1
2017-Aug-30 12:59N 28°08' W 015°24'0 0.0
2017-Aug-30 12:29N 28°08' W 015°24'0 0.0
2017-Aug-30 11:59N 28°08' W 015°24'0 0.0
2017-Aug-30 11:29N 28°08' W 015°24'0 0.0
2017-Aug-30 10:59N 28°08' W 015°24'0 0.4
2017-Aug-30 10:30N 28°09' W 015°23'2 3.7
2017-Aug-30 09:59N 28°08' W 015°22'2 4.4
2017-Aug-30 09:30N 28°08' W 015°19'17 8.8
2017-Aug-30 07:32N 28°18' W 015°03'115.5
2017-Aug-30 07:30N 28°18' W 015°03'37712.5
2017-Aug-29 01:24N 34°27' W 013°34'614.4
2017-Aug-29 00:59N 34°33' W 013°32'714.2
2017-Aug-29 00:30N 34°40' W 013°29'714.5
2017-Aug-28 23:59N 34°47' W 013°26'714.5
2017-Aug-28 23:29N 34°54' W 013°24'714.4
2017-Aug-28 22:59N 35°01' W 013°21'714.5
2017-Aug-28 22:29N 35°07' W 013°18'714.7
2017-Aug-28 21:59N 35°15' W 013°16'714.5
2017-Aug-28 21:30N 35°21' W 013°14'714.3
2017-Aug-28 20:59N 35°29' W 013°12'714.3
2017-Aug-28 20:29N 35°36' W 013°10'714.3
2017-Aug-28 19:59N 35°42' W 013°06'714.4
2017-Aug-28 19:30N 35°48' W 013°03'714.7
2017-Aug-28 19:00N 35°55' W 013°00'714.8
2017-Aug-28 18:30N 36°02' W 012°57'714.7
2017-Aug-28 18:00N 36°09' W 012°55'714.7
2017-Aug-28 17:30N 36°16' W 012°52'714.5
2017-Aug-28 16:59N 36°23' W 012°49'714.8
2017-Aug-28 16:29N 36°31' W 012°46'714.9
2017-Aug-28 15:59N 36°38' W 012°44'815.1
2017-Aug-28 15:29N 36°45' W 012°41'815.9
2017-Aug-28 14:58N 36°53' W 012°38'714.8
2017-Aug-28 14:28N 36°60' W 012°35'814.7
2017-Aug-28 13:56N 37°07' W 012°32'714.9
2017-Aug-28 13:30N 37°14' W 012°30'714.7
2017-Aug-28 13:00N 37°21' W 012°27'714.8
2017-Aug-28 12:29N 37°28' W 012°24'815.0
2017-Aug-28 11:59N 37°35' W 012°22'815.0
2017-Aug-28 11:29N 37°42' W 012°19'815.2
2017-Aug-28 10:57N 37°50' W 012°16'1314.9
2017-Aug-28 10:06N 38°02' W 012°11'114.4
2017-Aug-28 10:00N 38°03' W 012°10'815.4
2017-Aug-28 09:30N 38°11' W 012°07'816.6
2017-Aug-28 08:59N 38°19' W 012°04'816.2
2017-Aug-28 08:29N 38°27' W 012°01'816.1
2017-Aug-28 08:01N 38°34' W 011°58'816.4
2017-Aug-28 07:30N 38°42' W 011°55'816.4
2017-Aug-28 07:00N 38°50' W 011°52'816.6
2017-Aug-28 06:30N 38°58' W 011°49'816.4
2017-Aug-28 06:00N 39°05' W 011°45'816.2
2017-Aug-28 05:29N 39°13' W 011°42'816.3
2017-Aug-28 04:59N 39°21' W 011°39'816.0
2017-Aug-28 04:29N 39°29' W 011°36'816.3
2017-Aug-28 04:00N 39°36' W 011°33'816.5
2017-Aug-28 03:30N 39°44' W 011°30'44216.4
2017-Aug-27 00:36N 46°33' W 007°41'5316.3
2017-Aug-26 21:22N 47°19' W 007°04'1016.4
2017-Aug-26 20:43N 47°28' W 006°56'417.3
2017-Aug-26 20:30N 47°32' W 006°54'5715.9
2017-Aug-26 16:54N 48°22' W 006°13'615.4
2017-Aug-26 16:31N 48°27' W 006°09'815.4
2017-Aug-26 16:01N 48°34' W 006°03'816.0
2017-Aug-26 15:31N 48°41' W 005°57'816.3
2017-Aug-26 15:01N 48°48' W 005°51'1716.7
2017-Aug-26 14:00N 49°01' W 005°34'1017.6
2017-Aug-26 13:28N 49°09' W 005°28'817.2
2017-Aug-26 13:01N 49°16' W 005°23'916.9
2017-Aug-26 12:30N 49°25' W 005°21'817.0
2017-Aug-26 12:00N 49°33' W 005°18'916.8
2017-Aug-26 11:27N 49°42' W 005°15'816.5
2017-Aug-26 10:59N 49°50' W 005°12'816.0
2017-Aug-26 10:30N 49°57' W 005°07'715.0
2017-Aug-26 10:00N 50°02' W 004°58'611.1
2017-Aug-26 09:31N 50°07' W 005°02'1 1.6
2017-Aug-26 09:00N 50°07' W 005°02'0 0.0
2017-Aug-26 08:30N 50°07' W 005°02'0 0.1
2017-Aug-26 07:54N 50°07' W 005°02'0 0.0
2017-Aug-26 07:24N 50°07' W 005°02'0 0.2
2017-Aug-26 07:00N 50°07' W 005°02'0 0.2
2017-Aug-26 06:30N 50°07' W 005°03'0 0.1
2017-Aug-26 05:57N 50°07' W 005°03'0 0.0
2017-Aug-26 05:30N 50°07' W 005°03'0 0.0
2017-Aug-26 05:00N 50°07' W 005°03'0 0.0
2017-Aug-26 04:30N 50°07' W 005°03'0 0.0
2017-Aug-26 04:00N 50°07' W 005°03'0 0.0
2017-Aug-26 03:30N 50°07' W 005°03'0 0.0
2017-Aug-26 03:00N 50°07' W 005°03'0 0.0
2017-Aug-26 02:30N 50°07' W 005°03'0 0.0
2017-Aug-26 01:57N 50°07' W 005°03'0 0.0
2017-Aug-26 01:30N 50°07' W 005°03'0 0.0
2017-Aug-26 00:57N 50°07' W 005°03'0 0.0
2017-Aug-26 00:30N 50°07' W 005°03'0 0.0
2017-Aug-26 00:00N 50°07' W 005°03'0 0.1
2017-Aug-25 23:27N 50°07' W 005°03'0 0.0
2017-Aug-25 23:00N 50°07' W 005°03'0 0.0
2017-Aug-25 22:24N 50°07' W 005°03'0 0.0
2017-Aug-25 22:00N 50°07' W 005°03'0 0.1
2017-Aug-25 21:27N 50°07' W 005°03'0 0.1
2017-Aug-25 20:57N 50°07' W 005°02'0 0.0
2017-Aug-25 20:30N 50°07' W 005°02'0 0.1
2017-Aug-25 20:00N 50°07' W 005°02'0 0.2
2017-Aug-25 19:30N 50°07' W 005°02'0 0.0
2017-Aug-25 19:00N 50°07' W 005°02'0 0.1
2017-Aug-25 18:30N 50°07' W 005°03'0 0.0
2017-Aug-25 18:00N 50°07' W 005°03'0 0.1
2017-Aug-25 17:30N 50°07' W 005°03'0 0.1
2017-Aug-25 15:45N 50°07' W 005°03'0 0.1
2017-Aug-25 15:12N 50°07' W 005°03'0 0.1
2017-Aug-25 14:51N 50°07' W 005°03'0 0.0
2017-Aug-25 13:57N 50°07' W 005°03'0 0.0
2017-Aug-25 13:30N 50°07' W 005°03'0 0.0
2017-Aug-25 13:00N 50°07' W 005°03'0 0.0
2017-Aug-25 12:30N 50°07' W 005°03'0 0.0
2017-Aug-25 12:00N 50°07' W 005°03'0 0.0
2017-Aug-25 11:19N 50°07' W 005°03'0 0.0
2017-Aug-25 10:59N 50°07' W 005°03'0 0.1
2017-Aug-25 10:30N 50°07' W 005°03'0 0.3
2017-Aug-25 10:00N 50°07' W 005°03'1 1.7
2017-Aug-25 09:31N 50°06' W 005°02'3 5.7
2017-Aug-25 09:00N 50°06' W 004°58'3 7.0
2017-Aug-25 08:30N 50°03' W 004°54'612.1
2017-Aug-25 08:00N 49°58' W 004°50'612.4
2017-Aug-25 07:30N 49°52' W 004°48'612.6
2017-Aug-25 07:00N 49°45' W 004°48'612.5
2017-Aug-25 06:30N 49°39' W 004°48'510.2
2017-Aug-25 06:00N 49°34' W 004°50'611.6
2017-Aug-25 05:28N 49°39' W 004°55'4 8.9
2017-Aug-25 05:00N 49°43' W 004°51'611.1
2017-Aug-25 04:30N 49°37' W 004°48'612.3
2017-Aug-25 04:01N 49°31' W 004°49'612.3
2017-Aug-25 03:30N 49°25' W 004°50'612.2
2017-Aug-25 03:00N 49°19' W 004°50'612.2
2017-Aug-25 02:30N 49°13' W 004°50'611.0
2017-Aug-25 01:59N 49°07' W 004°51'610.8
2017-Aug-25 01:28N 49°04' W 004°58'610.2
2017-Aug-25 00:56N 49°00' W 005°04'410.1
2017-Aug-25 00:30N 48°58' W 005°10'510.2
2017-Aug-25 00:00N 48°56' W 005°17'510.2
2017-Aug-24 23:30N 48°53' W 005°23'510.2
2017-Aug-24 23:01N 48°50' W 005°30'510.4
2017-Aug-24 22:30N 48°47' W 005°36'510.3
2017-Aug-24 22:00N 48°43' W 005°41'810.8
2017-Aug-24 21:18N 48°36' W 005°46'310.7
2017-Aug-24 21:00N 48°33' W 005°47'24 9.1
2017-Aug-24 18:22N 48°18' W 005°20'411.7
2017-Aug-24 18:00N 48°17' W 005°14'611.7
2017-Aug-24 17:30N 48°16' W 005°05'611.4
2017-Aug-24 17:00N 48°15' W 004°56'611.7
2017-Aug-24 16:31N 48°17' W 004°48'510.2
2017-Aug-24 16:01N 48°18' W 004°41'1 2.8
2017-Aug-24 15:30N 48°17' W 004°42'510.9
2017-Aug-24 15:00N 48°15' W 004°50'612.2
2017-Aug-24 14:31N 48°12' W 004°58'918.3
2017-Aug-24 14:01N 48°08' W 005°10'1018.9
2017-Aug-24 13:30N 48°03' W 005°22'1018.0
2017-Aug-24 12:57N 47°57' W 005°34'910.7
2017-Aug-24 12:09N 47°60' W 005°22'320.6
2017-Aug-24 12:00N 48°02' W 005°19'1020.3
2017-Aug-24 11:31N 48°09' W 005°08'918.3
2017-Aug-24 11:01N 48°13' W 004°56'815.1
2017-Aug-24 10:31N 48°17' W 004°46'4 7.4
2017-Aug-24 10:01N 48°18' W 004°41'2 3.4
2017-Aug-24 09:31N 48°19' W 004°39'1 2.4
2017-Aug-24 09:00N 48°19' W 004°37'1 1.5
2017-Aug-24 08:31N 48°19' W 004°38'5 9.9
2017-Aug-24 08:01N 48°21' W 004°31'3 5.9
2017-Aug-24 07:30N 48°23' W 004°28'0 0.7
2017-Aug-24 07:01N 48°23' W 004°28'0 0.2
2017-Aug-24 06:31N 48°23' W 004°28'0 0.0
2017-Aug-24 06:00N 48°23' W 004°28'0 0.0
2017-Aug-24 05:29N 48°23' W 004°28'0 0.0
2017-Aug-24 05:00N 48°23' W 004°28'0 0.0
2017-Aug-24 04:30N 48°23' W 004°28'0 0.0
2017-Aug-24 04:00N 48°23' W 004°28'0 0.0
2017-Aug-24 03:30N 48°23' W 004°28'0 0.0
2017-Aug-24 03:00N 48°23' W 004°28'0 0.0
2017-Aug-24 02:30N 48°23' W 004°28'0 0.0
2017-Aug-24 02:00N 48°23' W 004°28'0 0.0
2017-Aug-24 01:30N 48°23' W 004°28'0 0.0
2017-Aug-24 01:00N 48°23' W 004°28'0 0.0
2017-Aug-24 00:30N 48°23' W 004°28'0 0.0
2017-Aug-24 00:00N 48°23' W 004°28'0 0.0
2017-Aug-23 23:30N 48°23' W 004°28'0 0.0
2017-Aug-23 23:00N 48°23' W 004°28'0 0.0
2017-Aug-23 22:30N 48°23' W 004°28'0 0.0
2017-Aug-23 22:00N 48°23' W 004°28'0 0.0
2017-Aug-23 21:30N 48°23' W 004°28'0 0.0
2017-Aug-23 21:00N 48°23' W 004°28'0 0.0
2017-Aug-23 20:30N 48°23' W 004°28'0 0.0
2017-Aug-23 20:00N 48°23' W 004°28'0 0.0
2017-Aug-23 19:30N 48°23' W 004°28'0 0.0
2017-Aug-23 19:00N 48°23' W 004°28'0 0.0
2017-Aug-23 18:30N 48°23' W 004°28'0 0.0
2017-Aug-23 18:00N 48°23' W 004°28'0 0.0
2017-Aug-23 17:30N 48°23' W 004°28'0 0.0
2017-Aug-23 17:00N 48°23' W 004°28'0 0.0
2017-Aug-23 16:30N 48°23' W 004°28'0 0.0
2017-Aug-23 16:00N 48°23' W 004°28'0 0.0
2017-Aug-23 15:30N 48°23' W 004°28'0 0.0
2017-Aug-23 15:00N 48°23' W 004°28'0 0.0
2017-Aug-23 14:00N 48°23' W 004°28'0 0.0
2017-Aug-23 13:30N 48°23' W 004°28'0 0.0
2017-Aug-23 12:59N 48°23' W 004°28'0 0.0
2017-Aug-23 12:30N 48°23' W 004°28'0 0.0
2017-Aug-23 12:00N 48°23' W 004°28'0 0.0
2017-Aug-23 11:30N 48°23' W 004°28'0 0.0
2017-Aug-23 11:00N 48°23' W 004°28'0 0.0
2017-Aug-23 10:30N 48°23' W 004°28'  
Track history (hours):
 
Tides and Currents Weather Stations Pressure Air Temp Water Temp Dewpoint Dewpoint Depression Visibility Wind Speed Wind Dir Waves Ship Positions

LNG Borno

Last reported at 2017-Sep-02 10:29 UTC. Time now 2017-Sep-25 06:30 UTC.
Position N 18°04' W 019°03'.
Warning: this ship's position is 22 days out of date.

Length 285 m; draft 9.2 m.

Type: Ship (hazmat cat A). MMSI: 310543000.

Date/timePositionNaut miles runAvg speedWind from/ knotsBaromVisibWave heightAir tempDewpointWater temp
2017-Sep-02 10:29N 18°04' W 019°03'1119.9
2017-Sep-02 09:55N 18°16' W 019°02'1019.7
2017-Sep-02 09:26N 18°25' W 019°01'919.6
2017-Sep-02 09:00N 18°34' W 019°01'1319.4
2017-Sep-02 08:19N 18°47' W 019°00'818.4
2017-Sep-02 07:54N 18°55' W 018°60'1018.1
2017-Sep-02 07:22N 19°04' W 018°59'1119.4
2017-Sep-02 06:49N 19°15' W 018°59'819.8
2017-Sep-02 06:24N 19°23' W 018°58'820.1
2017-Sep-02 05:59N 19°32' W 018°57'1020.3
2017-Sep-02 05:30N 19°41' W 018°57'1020.4
2017-Sep-02 04:59N 19°52' W 018°56'1020.4
2017-Sep-02 04:29N 20°02' W 018°56'1020.4
2017-Sep-02 03:59N 20°12' W 018°55'1120.1
2017-Sep-02 03:27N 20°23' W 018°54'6620.0
2017-Sep-02 00:08N 21°26' W 018°34'320.3
2017-Sep-01 23:59N 21°29' W 018°32'1020.3
2017-Sep-01 23:30N 21°38' W 018°28'1020.4
2017-Sep-01 22:59N 21°48' W 018°24'1020.2
2017-Sep-01 22:29N 21°57' W 018°20'1020.5
2017-Sep-01 21:59N 22°06' W 018°15'1020.4
2017-Sep-01 21:29N 22°16' W 018°10'1020.2
2017-Sep-01 20:59N 22°25' W 018°06'920.1
2017-Sep-01 20:30N 22°33' W 018°02'1020.2
2017-Sep-01 20:00N 22°43' W 017°57'1020.2
2017-Sep-01 19:30N 22°52' W 017°53'1120.2
2017-Sep-01 18:56N 23°03' W 017°48'1120.1
2017-Sep-01 18:22N 23°13' W 017°44'26413.8
2017-Aug-31 23:12N 27°03' W 015°19'2112.8
2017-Aug-31 21:35N 27°23' W 015°15'313.2
2017-Aug-31 21:20N 27°26' W 015°15'1113.0
2017-Aug-31 20:28N 27°37' W 015°15'612.7
2017-Aug-31 20:00N 27°43' W 015°15'712.8
2017-Aug-31 19:29N 27°50' W 015°14'612.9
2017-Aug-31 19:00N 27°56' W 015°15'612.6
2017-Aug-31 18:30N 28°02' W 015°17'611.3
2017-Aug-31 18:00N 28°07' W 015°20'1 1.0
2017-Aug-31 17:30N 28°08' W 015°19'3 6.4
2017-Aug-31 17:00N 28°08' W 015°16'1 2.6
2017-Aug-31 16:30N 28°08' W 015°15'714.8
2017-Aug-31 16:00N 28°15' W 015°16'1 2.3
2017-Aug-31 15:30N 28°14' W 015°15'2 4.4
2017-Aug-31 15:00N 28°16' W 015°15'1 1.8
2017-Aug-31 14:30N 28°16' W 015°16'1 1.6
2017-Aug-31 14:00N 28°16' W 015°16'2 4.2
2017-Aug-31 13:30N 28°15' W 015°18'3 6.0
2017-Aug-31 13:00N 28°12' W 015°20'4 7.6
2017-Aug-31 12:30N 28°09' W 015°23'1 2.0
2017-Aug-31 11:59N 28°08' W 015°24'0 0.1
2017-Aug-31 11:29N 28°08' W 015°24'0 0.0
2017-Aug-31 10:59N 28°08' W 015°24'0 0.0
2017-Aug-31 10:29N 28°08' W 015°24'0 0.1
2017-Aug-31 09:59N 28°08' W 015°24'0 0.1
2017-Aug-31 09:29N 28°08' W 015°24'0 0.1
2017-Aug-31 08:59N 28°08' W 015°24'0 0.0
2017-Aug-31 08:29N 28°08' W 015°24'0 0.0
2017-Aug-31 07:56N 28°08' W 015°24'0 0.0
2017-Aug-31 07:29N 28°08' W 015°24'0 0.1
2017-Aug-31 06:53N 28°08' W 015°24'0 0.0
2017-Aug-31 06:29N 28°08' W 015°24'0 0.1
2017-Aug-31 05:59N 28°08' W 015°24'0 0.0
2017-Aug-31 05:29N 28°08' W 015°24'0 0.1
2017-Aug-31 04:59N 28°08' W 015°24'0 0.0
2017-Aug-31 04:29N 28°08' W 015°24'0 0.0
2017-Aug-31 03:59N 28°08' W 015°24'0 0.0
2017-Aug-31 03:29N 28°08' W 015°24'0 0.0
2017-Aug-31 02:59N 28°08' W 015°24'0 0.0
2017-Aug-31 02:29N 28°08' W 015°24'0 0.1
2017-Aug-31 01:59N 28°08' W 015°24'0 0.0
2017-Aug-31 01:29N 28°08' W 015°24'0 0.1
2017-Aug-31 00:59N 28°08' W 015°24'0 0.1
2017-Aug-31 00:29N 28°08' W 015°24'0 0.0
2017-Aug-30 23:59N 28°08' W 015°24'0 0.0
2017-Aug-30 23:29N 28°08' W 015°24'0 0.0
2017-Aug-30 22:59N 28°08' W 015°24'0 0.1
2017-Aug-30 22:29N 28°08' W 015°24'0 0.0
2017-Aug-30 21:59N 28°08' W 015°24'0 0.1
2017-Aug-30 21:29N 28°08' W 015°24'0 0.0
2017-Aug-30 20:59N 28°08' W 015°24'0 0.0
2017-Aug-30 20:29N 28°08' W 015°24'0 0.1
2017-Aug-30 19:56N 28°08' W 015°24'0 0.0
2017-Aug-30 19:26N 28°08' W 015°24'0 0.0
2017-Aug-30 18:59N 28°08' W 015°24'0 0.0
2017-Aug-30 18:29N 28°08' W 015°24'0 0.0
2017-Aug-30 17:59N 28°08' W 015°24'0 0.0
2017-Aug-30 17:29N 28°08' W 015°24'0 0.0
2017-Aug-30 16:59N 28°08' W 015°24'0 0.0
2017-Aug-30 16:29N 28°08' W 015°24'0 0.0
2017-Aug-30 15:59N 28°08' W 015°24'0 0.0
2017-Aug-30 15:29N 28°08' W 015°24'0 0.0
2017-Aug-30 14:59N 28°08' W 015°24'0 0.1
2017-Aug-30 14:29N 28°08' W 015°24'0 0.0
2017-Aug-30 13:59N 28°08' W 015°24'0 0.0
2017-Aug-30 13:29N 28°08' W 015°24'0 0.1
2017-Aug-30 12:59N 28°08' W 015°24'0 0.0
2017-Aug-30 12:29N 28°08' W 015°24'0 0.0
2017-Aug-30 11:59N 28°08' W 015°24'0 0.0
2017-Aug-30 11:29N 28°08' W 015°24'0 0.0
2017-Aug-30 10:59N 28°08' W 015°24'0 0.4
2017-Aug-30 10:30N 28°09' W 015°23'2 3.7
2017-Aug-30 09:59N 28°08' W 015°22'2 4.4
2017-Aug-30 09:30N 28°08' W 015°19'17 8.8
2017-Aug-30 07:32N 28°18' W 015°03'115.5
2017-Aug-30 07:30N 28°18' W 015°03'37712.5
2017-Aug-29 01:24N 34°27' W 013°34'614.4
2017-Aug-29 00:59N 34°33' W 013°32'714.2
2017-Aug-29 00:30N 34°40' W 013°29'714.5
2017-Aug-28 23:59N 34°47' W 013°26'714.5
2017-Aug-28 23:29N 34°54' W 013°24'714.4
2017-Aug-28 22:59N 35°01' W 013°21'714.5
2017-Aug-28 22:29N 35°07' W 013°18'714.7
2017-Aug-28 21:59N 35°15' W 013°16'714.5
2017-Aug-28 21:30N 35°21' W 013°14'714.3
2017-Aug-28 20:59N 35°29' W 013°12'714.3
2017-Aug-28 20:29N 35°36' W 013°10'714.3
2017-Aug-28 19:59N 35°42' W 013°06'714.4
2017-Aug-28 19:30N 35°48' W 013°03'714.7
2017-Aug-28 19:00N 35°55' W 013°00'714.8
2017-Aug-28 18:30N 36°02' W 012°57'714.7
2017-Aug-28 18:00N 36°09' W 012°55'714.7
2017-Aug-28 17:30N 36°16' W 012°52'714.5
2017-Aug-28 16:59N 36°23' W 012°49'714.8
2017-Aug-28 16:29N 36°31' W 012°46'714.9
2017-Aug-28 15:59N 36°38' W 012°44'815.1
2017-Aug-28 15:29N 36°45' W 012°41'815.9
2017-Aug-28 14:58N 36°53' W 012°38'714.8
2017-Aug-28 14:28N 36°60' W 012°35'814.7
2017-Aug-28 13:56N 37°07' W 012°32'714.9
2017-Aug-28 13:30N 37°14' W 012°30'714.7
2017-Aug-28 13:00N 37°21' W 012°27'714.8
2017-Aug-28 12:29N 37°28' W 012°24'815.0
2017-Aug-28 11:59N 37°35' W 012°22'815.0
2017-Aug-28 11:29N 37°42' W 012°19'815.2
2017-Aug-28 10:57N 37°50' W 012°16'1314.9
2017-Aug-28 10:06N 38°02' W 012°11'114.4
2017-Aug-28 10:00N 38°03' W 012°10'815.4
2017-Aug-28 09:30N 38°11' W 012°07'816.6
2017-Aug-28 08:59N 38°19' W 012°04'816.2
2017-Aug-28 08:29N 38°27' W 012°01'816.1
2017-Aug-28 08:01N 38°34' W 011°58'816.4
2017-Aug-28 07:30N 38°42' W 011°55'816.4
2017-Aug-28 07:00N 38°50' W 011°52'816.6
2017-Aug-28 06:30N 38°58' W 011°49'816.4
2017-Aug-28 06:00N 39°05' W 011°45'816.2
2017-Aug-28 05:29N 39°13' W 011°42'816.3
2017-Aug-28 04:59N 39°21' W 011°39'816.0
2017-Aug-28 04:29N 39°29' W 011°36'816.3
2017-Aug-28 04:00N 39°36' W 011°33'816.5
2017-Aug-28 03:30N 39°44' W 011°30'44216.4
2017-Aug-27 00:36N 46°33' W 007°41'5316.3
2017-Aug-26 21:22N 47°19' W 007°04'1016.4
2017-Aug-26 20:43N 47°28' W 006°56'417.3
2017-Aug-26 20:30N 47°32' W 006°54'5715.9
2017-Aug-26 16:54N 48°22' W 006°13'615.4
2017-Aug-26 16:31N 48°27' W 006°09'815.4
2017-Aug-26 16:01N 48°34' W 006°03'816.0
2017-Aug-26 15:31N 48°41' W 005°57'816.3
2017-Aug-26 15:01N 48°48' W 005°51'1716.7
2017-Aug-26 14:00N 49°01' W 005°34'1017.6
2017-Aug-26 13:28N 49°09' W 005°28'817.2
2017-Aug-26 13:01N 49°16' W 005°23'916.9
2017-Aug-26 12:30N 49°25' W 005°21'817.0
2017-Aug-26 12:00N 49°33' W 005°18'916.8
2017-Aug-26 11:27N 49°42' W 005°15'816.5
2017-Aug-26 10:59N 49°50' W 005°12'816.0
2017-Aug-26 10:30N 49°57' W 005°07'715.0
2017-Aug-26 10:00N 50°02' W 004°58'611.1
2017-Aug-26 09:31N 50°07' W 005°02'1 1.6
2017-Aug-26 09:00N 50°07' W 005°02'0 0.0
2017-Aug-26 08:30N 50°07' W 005°02'0 0.1
2017-Aug-26 07:54N 50°07' W 005°02'0 0.0
2017-Aug-26 07:24N 50°07' W 005°02'0 0.2
2017-Aug-26 07:00N 50°07' W 005°02'0 0.2
2017-Aug-26 06:30N 50°07' W 005°03'0 0.1
2017-Aug-26 05:57N 50°07' W 005°03'0 0.0
2017-Aug-26 05:30N 50°07' W 005°03'0 0.0
2017-Aug-26 05:00N 50°07' W 005°03'0 0.0
2017-Aug-26 04:30N 50°07' W 005°03'0 0.0
2017-Aug-26 04:00N 50°07' W 005°03'0 0.0
2017-Aug-26 03:30N 50°07' W 005°03'0 0.0
2017-Aug-26 03:00N 50°07' W 005°03'0 0.0
2017-Aug-26 02:30N 50°07' W 005°03'0 0.0
2017-Aug-26 01:57N 50°07' W 005°03'0 0.0
2017-Aug-26 01:30N 50°07' W 005°03'0 0.0
2017-Aug-26 00:57N 50°07' W 005°03'0 0.0
2017-Aug-26 00:30N 50°07' W 005°03'0 0.0
2017-Aug-26 00:00N 50°07' W 005°03'0 0.1
2017-Aug-25 23:27N 50°07' W 005°03'0 0.0
2017-Aug-25 23:00N 50°07' W 005°03'0 0.0
2017-Aug-25 22:24N 50°07' W 005°03'0 0.0
2017-Aug-25 22:00N 50°07' W 005°03'0 0.1
2017-Aug-25 21:27N 50°07' W 005°03'0 0.1
2017-Aug-25 20:57N 50°07' W 005°02'0 0.0
2017-Aug-25 20:30N 50°07' W 005°02'0 0.1
2017-Aug-25 20:00N 50°07' W 005°02'0 0.2
2017-Aug-25 19:30N 50°07' W 005°02'0 0.0
2017-Aug-25 19:00N 50°07' W 005°02'0 0.1
2017-Aug-25 18:30N 50°07' W 005°03'0 0.0
2017-Aug-25 18:00N 50°07' W 005°03'0 0.1
2017-Aug-25 17:30N 50°07' W 005°03'0 0.1
2017-Aug-25 15:45N 50°07' W 005°03'0 0.1
2017-Aug-25 15:12N 50°07' W 005°03'0 0.1
2017-Aug-25 14:51N 50°07' W 005°03'0 0.0
2017-Aug-25 13:57N 50°07' W 005°03'0 0.0
2017-Aug-25 13:30N 50°07' W 005°03'0 0.0
2017-Aug-25 13:00N 50°07' W 005°03'0 0.0
2017-Aug-25 12:30N 50°07' W 005°03'0 0.0
2017-Aug-25 12:00N 50°07' W 005°03'0 0.0
2017-Aug-25 11:19N 50°07' W 005°03'0 0.0
2017-Aug-25 10:59N 50°07' W 005°03'0 0.1
2017-Aug-25 10:30N 50°07' W 005°03'0 0.3
2017-Aug-25 10:00N 50°07' W 005°03'1 1.7
2017-Aug-25 09:31N 50°06' W 005°02'3 5.7
2017-Aug-25 09:00N 50°06' W 004°58'3 7.0
2017-Aug-25 08:30N 50°03' W 004°54'612.1
2017-Aug-25 08:00N 49°58' W 004°50'612.4
2017-Aug-25 07:30N 49°52' W 004°48'612.6
2017-Aug-25 07:00N 49°45' W 004°48'612.5
2017-Aug-25 06:30N 49°39' W 004°48'510.2
2017-Aug-25 06:00N 49°34' W 004°50'611.6
2017-Aug-25 05:28N 49°39' W 004°55'4 8.9
2017-Aug-25 05:00N 49°43' W 004°51'611.1
2017-Aug-25 04:30N 49°37' W 004°48'612.3
2017-Aug-25 04:01N 49°31' W 004°49'612.3
2017-Aug-25 03:30N 49°25' W 004°50'612.2
2017-Aug-25 03:00N 49°19' W 004°50'612.2
2017-Aug-25 02:30N 49°13' W 004°50'611.0
2017-Aug-25 01:59N 49°07' W 004°51'610.8
2017-Aug-25 01:28N 49°04' W 004°58'610.2
2017-Aug-25 00:56N 49°00' W 005°04'410.1
2017-Aug-25 00:30N 48°58' W 005°10'510.2
2017-Aug-25 00:00N 48°56' W 005°17'510.2
2017-Aug-24 23:30N 48°53' W 005°23'510.2
2017-Aug-24 23:01N 48°50' W 005°30'510.4
2017-Aug-24 22:30N 48°47' W 005°36'510.3
2017-Aug-24 22:00N 48°43' W 005°41'810.8
2017-Aug-24 21:18N 48°36' W 005°46'310.7
2017-Aug-24 21:00N 48°33' W 005°47'24 9.1
2017-Aug-24 18:22N 48°18' W 005°20'411.7
2017-Aug-24 18:00N 48°17' W 005°14'611.7
2017-Aug-24 17:30N 48°16' W 005°05'611.4
2017-Aug-24 17:00N 48°15' W 004°56'611.7
2017-Aug-24 16:31N 48°17' W 004°48'510.2
2017-Aug-24 16:01N 48°18' W 004°41'1 2.8
2017-Aug-24 15:30N 48°17' W 004°42'510.9
2017-Aug-24 15:00N 48°15' W 004°50'612.2
2017-Aug-24 14:31N 48°12' W 004°58'918.3
2017-Aug-24 14:01N 48°08' W 005°10'1018.9
2017-Aug-24 13:30N 48°03' W 005°22'1018.0
2017-Aug-24 12:57N 47°57' W 005°34'910.7
2017-Aug-24 12:09N 47°60' W 005°22'320.6
2017-Aug-24 12:00N 48°02' W 005°19'1020.3
2017-Aug-24 11:31N 48°09' W 005°08'918.3
2017-Aug-24 11:01N 48°13' W 004°56'815.1
2017-Aug-24 10:31N 48°17' W 004°46'4 7.4
2017-Aug-24 10:01N 48°18' W 004°41'2 3.4
2017-Aug-24 09:31N 48°19' W 004°39'1 2.4
2017-Aug-24 09:00N 48°19' W 004°37'1 1.5
2017-Aug-24 08:31N 48°19' W 004°38'5 9.9
2017-Aug-24 08:01N 48°21' W 004°31'3 5.9
2017-Aug-24 07:30N 48°23' W 004°28'0 0.7
2017-Aug-24 07:01N 48°23' W 004°28'0 0.2
2017-Aug-24 06:31N 48°23' W 004°28'0 0.0
2017-Aug-24 06:00N 48°23' W 004°28'0 0.0
2017-Aug-24 05:29N 48°23' W 004°28'0 0.0
2017-Aug-24 05:00N 48°23' W 004°28'0 0.0
2017-Aug-24 04:30N 48°23' W 004°28'0 0.0
2017-Aug-24 04:00N 48°23' W 004°28'0 0.0
2017-Aug-24 03:30N 48°23' W 004°28'0 0.0
2017-Aug-24 03:00N 48°23' W 004°28'0 0.0
2017-Aug-24 02:30N 48°23' W 004°28'0 0.0
2017-Aug-24 02:00N 48°23' W 004°28'0 0.0
2017-Aug-24 01:30N 48°23' W 004°28'0 0.0
2017-Aug-24 01:00N 48°23' W 004°28'0 0.0
2017-Aug-24 00:30N 48°23' W 004°28'0 0.0
2017-Aug-24 00:00N 48°23' W 004°28'0 0.0
2017-Aug-23 23:30N 48°23' W 004°28'0 0.0
2017-Aug-23 23:00N 48°23' W 004°28'0 0.0
2017-Aug-23 22:30N 48°23' W 004°28'0 0.0
2017-Aug-23 22:00N 48°23' W 004°28'0 0.0
2017-Aug-23 21:30N 48°23' W 004°28'0 0.0
2017-Aug-23 21:00N 48°23' W 004°28'0 0.0
2017-Aug-23 20:30N 48°23' W 004°28'0 0.0
2017-Aug-23 20:00N 48°23' W 004°28'0 0.0
2017-Aug-23 19:30N 48°23' W 004°28'0 0.0
2017-Aug-23 19:00N 48°23' W 004°28'0 0.0
2017-Aug-23 18:30N 48°23' W 004°28'0 0.0
2017-Aug-23 18:00N 48°23' W 004°28'0 0.0
2017-Aug-23 17:30N 48°23' W 004°28'0 0.0
2017-Aug-23 17:00N 48°23' W 004°28'0 0.0
2017-Aug-23 16:30N 48°23' W 004°28'0 0.0
2017-Aug-23 16:00N 48°23' W 004°28'0 0.0
2017-Aug-23 15:30N 48°23' W 004°28'0 0.0
2017-Aug-23 15:00N 48°23' W 004°28'0 0.0
2017-Aug-23 14:00N 48°23' W 004°28'0 0.0
2017-Aug-23 13:30N 48°23' W 004°28'0 0.0
2017-Aug-23 12:59N 48°23' W 004°28'0 0.0
2017-Aug-23 12:30N 48°23' W 004°28'0 0.0
2017-Aug-23 12:00N 48°23' W 004°28'0 0.0
2017-Aug-23 11:30N 48°23' W 004°28'0 0.0
2017-Aug-23 11:00N 48°23' W 004°28'0 0.0
2017-Aug-23 10:30N 48°23' W 004°28'  

Dump ship's entire track history